sensor_id;sensor_type;location;lat;lon;timestamp;P1;durP1;ratioP1;P2;durP2;ratioP2
48423;SDS011;34232;42.502;26.014;2022-11-15T00:00:26;22.67;;;12.00;;
48423;SDS011;34232;42.502;26.014;2022-11-15T00:02:52;23.13;;;12.00;;
48423;SDS011;34232;42.502;26.014;2022-11-15T00:05:18;28.93;;;14.60;;
48423;SDS011;34232;42.502;26.014;2022-11-15T00:07:43;29.93;;;13.87;;
48423;SDS011;34232;42.502;26.014;2022-11-15T00:10:09;25.77;;;13.83;;
48423;SDS011;34232;42.502;26.014;2022-11-15T00:12:34;26.43;;;12.90;;
48423;SDS011;34232;42.502;26.014;2022-11-15T00:15:00;24.97;;;13.20;;
48423;SDS011;34232;42.502;26.014;2022-11-15T00:17:25;24.93;;;12.73;;
48423;SDS011;34232;42.502;26.014;2022-11-15T00:19:50;25.23;;;13.70;;
48423;SDS011;34232;42.502;26.014;2022-11-15T00:22:16;27.47;;;13.17;;
48423;SDS011;34232;42.502;26.014;2022-11-15T00:24:41;27.90;;;12.97;;
48423;SDS011;34232;42.502;26.014;2022-11-15T00:27:07;31.20;;;14.20;;
48423;SDS011;34232;42.502;26.014;2022-11-15T00:29:33;28.97;;;13.37;;
48423;SDS011;34232;42.502;26.014;2022-11-15T00:31:58;22.23;;;11.10;;
48423;SDS011;34232;42.502;26.014;2022-11-15T00:34:24;25.23;;;13.33;;
48423;SDS011;34232;42.502;26.014;2022-11-15T00:36:49;22.60;;;12.53;;
48423;SDS011;34232;42.502;26.014;2022-11-15T00:39:14;25.93;;;12.00;;
48423;SDS011;34232;42.502;26.014;2022-11-15T00:41:40;25.57;;;12.63;;
48423;SDS011;34232;42.502;26.014;2022-11-15T00:44:05;26.63;;;12.93;;
48423;SDS011;34232;42.502;26.014;2022-11-15T00:46:31;27.23;;;13.73;;
48423;SDS011;34232;42.502;26.014;2022-11-15T00:48:56;21.13;;;11.37;;
48423;SDS011;34232;42.502;26.014;2022-11-15T00:51:21;24.80;;;12.67;;
48423;SDS011;34232;42.502;26.014;2022-11-15T00:53:47;22.07;;;11.23;;
48423;SDS011;34232;42.502;26.014;2022-11-15T00:56:12;28.80;;;12.87;;
48423;SDS011;34232;42.502;26.014;2022-11-15T00:58:38;28.10;;;13.00;;
48423;SDS011;34232;42.502;26.014;2022-11-15T01:01:07;24.93;;;13.27;;
48423;SDS011;34232;42.502;26.014;2022-11-15T01:03:37;30.55;;;13.05;;
48423;SDS011;34232;42.502;26.014;2022-11-15T01:06:03;24.10;;;11.55;;
48423;SDS011;34232;42.502;26.014;2022-11-15T01:08:29;29.90;;;12.47;;
48423;SDS011;34232;42.502;26.014;2022-11-15T01:10:59;26.77;;;14.03;;
48423;SDS011;34232;42.502;26.014;2022-11-15T01:13:26;27.83;;;12.38;;
48423;SDS011;34232;42.502;26.014;2022-11-15T01:15:54;27.95;;;13.15;;
48423;SDS011;34232;42.502;26.014;2022-11-15T01:18:20;29.93;;;12.37;;
48423;SDS011;34232;42.502;26.014;2022-11-15T01:20:45;25.70;;;12.67;;
48423;SDS011;34232;42.502;26.014;2022-11-15T01:23:11;26.50;;;11.90;;
48423;SDS011;34232;42.502;26.014;2022-11-15T01:25:36;26.43;;;11.30;;
48423;SDS011;34232;42.502;26.014;2022-11-15T01:28:01;28.20;;;12.20;;
48423;SDS011;34232;42.502;26.014;2022-11-15T01:30:27;30.77;;;13.00;;
48423;SDS011;34232;42.502;26.014;2022-11-15T01:32:52;28.83;;;12.83;;
48423;SDS011;34232;42.502;26.014;2022-11-15T01:35:18;24.83;;;11.30;;
48423;SDS011;34232;42.502;26.014;2022-11-15T01:37:43;29.40;;;11.93;;
48423;SDS011;34232;42.502;26.014;2022-11-15T01:40:08;27.97;;;12.33;;
48423;SDS011;34232;42.502;26.014;2022-11-15T01:42:34;24.80;;;11.17;;
48423;SDS011;34232;42.502;26.014;2022-11-15T01:45:00;28.07;;;10.93;;
48423;SDS011;34232;42.502;26.014;2022-11-15T01:47:30;27.07;;;12.93;;
48423;SDS011;34232;42.502;26.014;2022-11-15T01:50:03;25.30;;;11.63;;
48423;SDS011;34232;42.502;26.014;2022-11-15T01:52:31;25.40;;;12.07;;
48423;SDS011;34232;42.502;26.014;2022-11-15T01:57:27;27.60;;;13.13;;
48423;SDS011;34232;42.502;26.014;2022-11-15T01:59:53;25.27;;;12.23;;
48423;SDS011;34232;42.502;26.014;2022-11-15T02:02:19;25.63;;;11.40;;
48423;SDS011;34232;42.502;26.014;2022-11-15T02:04:46;28.40;;;13.00;;
48423;SDS011;34232;42.502;26.014;2022-11-15T02:07:13;24.98;;;11.02;;
48423;SDS011;34232;42.502;26.014;2022-11-15T02:09:41;25.80;;;12.07;;
48423;SDS011;34232;42.502;26.014;2022-11-15T02:12:08;28.90;;;12.30;;
48423;SDS011;34232;42.502;26.014;2022-11-15T02:14:36;21.45;;;11.32;;
48423;SDS011;34232;42.502;26.014;2022-11-15T02:25:40;24.60;;;11.02;;
48423;SDS011;34232;42.502;26.014;2022-11-15T02:39:37;21.98;;;11.63;;
48423;SDS011;34232;42.502;26.014;2022-11-15T02:42:21;23.63;;;11.05;;
48423;SDS011;34232;42.502;26.014;2022-11-15T02:45:09;25.02;;;12.10;;
48423;SDS011;34232;42.502;26.014;2022-11-15T02:47:42;27.40;;;11.52;;
48423;SDS011;34232;42.502;26.014;2022-11-15T02:50:11;29.27;;;13.10;;
48423;SDS011;34232;42.502;26.014;2022-11-15T02:52:41;30.67;;;14.63;;
48423;SDS011;34232;42.502;26.014;2022-11-15T02:55:26;24.85;;;12.73;;
48423;SDS011;34232;42.502;26.014;2022-11-15T02:57:52;24.60;;;12.00;;
48423;SDS011;34232;42.502;26.014;2022-11-15T03:00:28;24.92;;;12.45;;
48423;SDS011;34232;42.502;26.014;2022-11-15T03:06:05;27.17;;;11.93;;
48423;SDS011;34232;42.502;26.014;2022-11-15T03:08:46;29.05;;;13.13;;
48423;SDS011;34232;42.502;26.014;2022-11-15T03:11:17;33.25;;;12.32;;
48423;SDS011;34232;42.502;26.014;2022-11-15T03:16:20;26.20;;;12.73;;
48423;SDS011;34232;42.502;26.014;2022-11-15T03:21:59;25.33;;;11.48;;
48423;SDS011;34232;42.502;26.014;2022-11-15T03:24:30;23.75;;;10.80;;
48423;SDS011;34232;42.502;26.014;2022-11-15T03:27:04;26.92;;;11.95;;
48423;SDS011;34232;42.502;26.014;2022-11-15T03:29:36;22.77;;;11.50;;
48423;SDS011;34232;42.502;26.014;2022-11-15T03:32:07;27.55;;;11.40;;
48423;SDS011;34232;42.502;26.014;2022-11-15T03:34:52;24.05;;;11.45;;
48423;SDS011;34232;42.502;26.014;2022-11-15T03:37:38;25.80;;;12.25;;
48423;SDS011;34232;42.502;26.014;2022-11-15T03:40:14;30.13;;;12.27;;
48423;SDS011;34232;42.502;26.014;2022-11-15T03:45:19;30.70;;;13.63;;
48423;SDS011;34232;42.502;26.014;2022-11-15T03:47:53;28.02;;;11.88;;
48423;SDS011;34232;42.502;26.014;2022-11-15T03:50:29;31.20;;;13.35;;
48423;SDS011;34232;42.502;26.014;2022-11-15T03:52:55;27.47;;;13.17;;
48423;SDS011;34232;42.502;26.014;2022-11-15T03:55:21;27.33;;;11.73;;
48423;SDS011;34232;42.502;26.014;2022-11-15T03:57:48;29.97;;;12.97;;
48423;SDS011;34232;42.502;26.014;2022-11-15T04:00:15;29.77;;;12.90;;
48423;SDS011;34232;42.502;26.014;2022-11-15T04:02:41;31.77;;;13.83;;
48423;SDS011;34232;42.502;26.014;2022-11-15T04:05:06;30.63;;;13.40;;
48423;SDS011;34232;42.502;26.014;2022-11-15T04:07:32;27.53;;;12.37;;
48423;SDS011;34232;42.502;26.014;2022-11-15T04:09:57;24.80;;;12.03;;
48423;SDS011;34232;42.502;26.014;2022-11-15T04:12:30;28.02;;;12.85;;
48423;SDS011;34232;42.502;26.014;2022-11-15T04:17:28;30.08;;;11.55;;
48423;SDS011;34232;42.502;26.014;2022-11-15T04:19:53;31.03;;;11.93;;
48423;SDS011;34232;42.502;26.014;2022-11-15T04:22:37;27.63;;;12.35;;
48423;SDS011;34232;42.502;26.014;2022-11-15T04:25:21;33.47;;;14.20;;
48423;SDS011;34232;42.502;26.014;2022-11-15T04:27:47;30.43;;;12.77;;
48423;SDS011;34232;42.502;26.014;2022-11-15T04:30:12;26.90;;;12.87;;
48423;SDS011;34232;42.502;26.014;2022-11-15T04:32:37;32.23;;;14.30;;
48423;SDS011;34232;42.502;26.014;2022-11-15T04:35:03;31.53;;;13.53;;
48423;SDS011;34232;42.502;26.014;2022-11-15T04:37:29;26.43;;;11.40;;
48423;SDS011;34232;42.502;26.014;2022-11-15T04:39:54;27.77;;;11.40;;
48423;SDS011;34232;42.502;26.014;2022-11-15T04:42:19;33.53;;;13.63;;
48423;SDS011;34232;42.502;26.014;2022-11-15T04:44:45;30.03;;;12.03;;
48423;SDS011;34232;42.502;26.014;2022-11-15T04:47:10;25.03;;;12.90;;
48423;SDS011;34232;42.502;26.014;2022-11-15T04:49:35;32.37;;;12.93;;
48423;SDS011;34232;42.502;26.014;2022-11-15T04:52:01;31.47;;;12.10;;
48423;SDS011;34232;42.502;26.014;2022-11-15T04:54:26;38.00;;;15.07;;
48423;SDS011;34232;42.502;26.014;2022-11-15T04:56:54;28.35;;;12.93;;
48423;SDS011;34232;42.502;26.014;2022-11-15T04:59:20;24.30;;;13.00;;
48423;SDS011;34232;42.502;26.014;2022-11-15T05:01:45;32.40;;;14.40;;
48423;SDS011;34232;42.502;26.014;2022-11-15T05:04:10;30.30;;;14.50;;
48423;SDS011;34232;42.502;26.014;2022-11-15T05:06:48;29.48;;;12.77;;
48423;SDS011;34232;42.502;26.014;2022-11-15T05:09:16;28.75;;;12.38;;
48423;SDS011;34232;42.502;26.014;2022-11-15T05:11:42;32.35;;;13.18;;
48423;SDS011;34232;42.502;26.014;2022-11-15T05:14:07;26.20;;;12.70;;
48423;SDS011;34232;42.502;26.014;2022-11-15T05:16:33;26.83;;;12.37;;
48423;SDS011;34232;42.502;26.014;2022-11-15T05:18:58;29.33;;;12.50;;
48423;SDS011;34232;42.502;26.014;2022-11-15T05:21:23;24.87;;;11.57;;
48423;SDS011;34232;42.502;26.014;2022-11-15T05:23:49;21.93;;;11.30;;
48423;SDS011;34232;42.502;26.014;2022-11-15T05:26:15;32.00;;;12.20;;
48423;SDS011;34232;42.502;26.014;2022-11-15T05:28:43;27.52;;;12.75;;
48423;SDS011;34232;42.502;26.014;2022-11-15T05:31:09;30.27;;;13.93;;
48423;SDS011;34232;42.502;26.014;2022-11-15T05:33:37;29.70;;;12.48;;
48423;SDS011;34232;42.502;26.014;2022-11-15T05:36:04;23.50;;;11.82;;
48423;SDS011;34232;42.502;26.014;2022-11-15T05:38:37;24.90;;;11.35;;
48423;SDS011;34232;42.502;26.014;2022-11-15T05:41:02;28.43;;;12.37;;
48423;SDS011;34232;42.502;26.014;2022-11-15T05:43:30;29.77;;;13.88;;
48423;SDS011;34232;42.502;26.014;2022-11-15T05:45:58;27.48;;;11.98;;
48423;SDS011;34232;42.502;26.014;2022-11-15T05:48:25;26.80;;;12.60;;
48423;SDS011;34232;42.502;26.014;2022-11-15T05:50:50;26.87;;;13.33;;
48423;SDS011;34232;42.502;26.014;2022-11-15T05:53:17;28.10;;;13.32;;
48423;SDS011;34232;42.502;26.014;2022-11-15T05:55:46;30.02;;;13.93;;
48423;SDS011;34232;42.502;26.014;2022-11-15T05:58:12;29.97;;;14.33;;
48423;SDS011;34232;42.502;26.014;2022-11-15T06:00:38;28.90;;;13.37;;
48423;SDS011;34232;42.502;26.014;2022-11-15T06:03:04;30.87;;;13.27;;
48423;SDS011;34232;42.502;26.014;2022-11-15T06:05:29;28.93;;;13.90;;
48423;SDS011;34232;42.502;26.014;2022-11-15T06:07:58;32.03;;;14.10;;
48423;SDS011;34232;42.502;26.014;2022-11-15T06:10:24;28.20;;;13.43;;
48423;SDS011;34232;42.502;26.014;2022-11-15T06:12:59;31.87;;;13.90;;
48423;SDS011;34232;42.502;26.014;2022-11-15T06:15:25;31.88;;;12.77;;
48423;SDS011;34232;42.502;26.014;2022-11-15T06:17:51;29.67;;;14.97;;
48423;SDS011;34232;42.502;26.014;2022-11-15T06:20:16;27.43;;;13.43;;
48423;SDS011;34232;42.502;26.014;2022-11-15T06:22:42;38.43;;;13.43;;
48423;SDS011;34232;42.502;26.014;2022-11-15T06:25:08;29.93;;;12.37;;
48423;SDS011;34232;42.502;26.014;2022-11-15T06:27:33;30.30;;;14.97;;
48423;SDS011;34232;42.502;26.014;2022-11-15T06:29:59;29.90;;;12.70;;
48423;SDS011;34232;42.502;26.014;2022-11-15T06:32:24;28.63;;;13.87;;
48423;SDS011;34232;42.502;26.014;2022-11-15T06:34:50;29.93;;;13.13;;
48423;SDS011;34232;42.502;26.014;2022-11-15T06:37:15;29.33;;;14.47;;
48423;SDS011;34232;42.502;26.014;2022-11-15T06:39:41;29.20;;;12.97;;
48423;SDS011;34232;42.502;26.014;2022-11-15T06:42:07;26.43;;;12.80;;
48423;SDS011;34232;42.502;26.014;2022-11-15T06:44:33;34.65;;;16.15;;
48423;SDS011;34232;42.502;26.014;2022-11-15T06:46:58;33.53;;;15.30;;
48423;SDS011;34232;42.502;26.014;2022-11-15T06:49:24;34.20;;;16.17;;
48423;SDS011;34232;42.502;26.014;2022-11-15T06:51:49;35.10;;;15.70;;
48423;SDS011;34232;42.502;26.014;2022-11-15T06:54:15;33.03;;;15.47;;
48423;SDS011;34232;42.502;26.014;2022-11-15T06:56:40;38.97;;;19.10;;
48423;SDS011;34232;42.502;26.014;2022-11-15T06:59:05;36.43;;;17.50;;
48423;SDS011;34232;42.502;26.014;2022-11-15T07:01:31;40.17;;;16.57;;
48423;SDS011;34232;42.502;26.014;2022-11-15T07:03:56;29.63;;;13.73;;
48423;SDS011;34232;42.502;26.014;2022-11-15T07:06:21;40.27;;;15.30;;
48423;SDS011;34232;42.502;26.014;2022-11-15T07:08:47;37.60;;;16.57;;
48423;SDS011;34232;42.502;26.014;2022-11-15T07:11:12;45.03;;;17.97;;
48423;SDS011;34232;42.502;26.014;2022-11-15T07:13:38;37.20;;;14.40;;
48423;SDS011;34232;42.502;26.014;2022-11-15T07:16:04;26.13;;;13.10;;
48423;SDS011;34232;42.502;26.014;2022-11-15T07:18:30;35.85;;;14.63;;
48423;SDS011;34232;42.502;26.014;2022-11-15T07:20:59;35.13;;;12.73;;
48423;SDS011;34232;42.502;26.014;2022-11-15T07:23:26;33.00;;;11.98;;
48423;SDS011;34232;42.502;26.014;2022-11-15T07:25:51;30.57;;;14.83;;
48423;SDS011;34232;42.502;26.014;2022-11-15T07:28:16;27.87;;;11.73;;
48423;SDS011;34232;42.502;26.014;2022-11-15T07:30:42;28.47;;;13.70;;
48423;SDS011;34232;42.502;26.014;2022-11-15T07:33:07;36.80;;;15.17;;
48423;SDS011;34232;42.502;26.014;2022-11-15T07:35:33;39.00;;;13.87;;
48423;SDS011;34232;42.502;26.014;2022-11-15T07:37:59;35.47;;;13.53;;
48423;SDS011;34232;42.502;26.014;2022-11-15T07:40:28;32.40;;;13.23;;
48423;SDS011;34232;42.502;26.014;2022-11-15T07:42:59;37.95;;;15.43;;
48423;SDS011;34232;42.502;26.014;2022-11-15T07:45:28;49.50;;;19.02;;
48423;SDS011;34232;42.502;26.014;2022-11-15T07:47:54;57.22;;;25.00;;
48423;SDS011;34232;42.502;26.014;2022-11-15T07:50:21;31.25;;;14.63;;
48423;SDS011;34232;42.502;26.014;2022-11-15T07:55:17;27.45;;;11.20;;
48423;SDS011;34232;42.502;26.014;2022-11-15T07:57:43;26.10;;;10.63;;
48423;SDS011;34232;42.502;26.014;2022-11-15T08:00:08;25.27;;;12.73;;
48423;SDS011;34232;42.502;26.014;2022-11-15T08:02:34;29.75;;;13.27;;
48423;SDS011;34232;42.502;26.014;2022-11-15T08:05:00;37.47;;;14.00;;
48423;SDS011;34232;42.502;26.014;2022-11-15T08:07:27;35.43;;;15.30;;
48423;SDS011;34232;42.502;26.014;2022-11-15T08:09:54;32.00;;;14.30;;
48423;SDS011;34232;42.502;26.014;2022-11-15T08:12:20;37.60;;;13.27;;
48423;SDS011;34232;42.502;26.014;2022-11-15T08:14:45;28.53;;;13.20;;
48423;SDS011;34232;42.502;26.014;2022-11-15T08:17:11;27.83;;;14.17;;
48423;SDS011;34232;42.502;26.014;2022-11-15T08:19:36;38.90;;;16.30;;
48423;SDS011;34232;42.502;26.014;2022-11-15T08:22:01;29.23;;;12.70;;
48423;SDS011;34232;42.502;26.014;2022-11-15T08:24:27;34.77;;;13.67;;
48423;SDS011;34232;42.502;26.014;2022-11-15T08:26:52;25.97;;;11.40;;
48423;SDS011;34232;42.502;26.014;2022-11-15T08:29:18;29.93;;;12.97;;
48423;SDS011;34232;42.502;26.014;2022-11-15T08:31:43;30.93;;;13.10;;
48423;SDS011;34232;42.502;26.014;2022-11-15T08:34:08;29.23;;;11.23;;
48423;SDS011;34232;42.502;26.014;2022-11-15T08:36:34;28.93;;;11.70;;
48423;SDS011;34232;42.502;26.014;2022-11-15T08:38:59;33.97;;;12.70;;
48423;SDS011;34232;42.502;26.014;2022-11-15T08:41:26;38.57;;;12.43;;
48423;SDS011;34232;42.502;26.014;2022-11-15T08:43:57;32.10;;;12.30;;
48423;SDS011;34232;42.502;26.014;2022-11-15T08:46:23;32.10;;;11.97;;
48423;SDS011;34232;42.502;26.014;2022-11-15T08:48:48;31.33;;;12.13;;
48423;SDS011;34232;42.502;26.014;2022-11-15T08:51:13;27.77;;;11.70;;
48423;SDS011;34232;42.502;26.014;2022-11-15T08:53:39;28.57;;;12.07;;
48423;SDS011;34232;42.502;26.014;2022-11-15T08:56:09;30.88;;;13.02;;
48423;SDS011;34232;42.502;26.014;2022-11-15T08:58:35;23.90;;;11.45;;
48423;SDS011;34232;42.502;26.014;2022-11-15T09:01:01;27.40;;;12.13;;
48423;SDS011;34232;42.502;26.014;2022-11-15T09:03:27;25.48;;;12.63;;
48423;SDS011;34232;42.502;26.014;2022-11-15T09:05:59;26.20;;;11.83;;
48423;SDS011;34232;42.502;26.014;2022-11-15T09:08:28;28.42;;;12.55;;
48423;SDS011;34232;42.502;26.014;2022-11-15T09:10:55;26.90;;;10.35;;
48423;SDS011;34232;42.502;26.014;2022-11-15T09:13:20;30.67;;;12.97;;
48423;SDS011;34232;42.502;26.014;2022-11-15T09:15:46;26.37;;;12.10;;
48423;SDS011;34232;42.502;26.014;2022-11-15T09:18:12;24.80;;;10.70;;
48423;SDS011;34232;42.502;26.014;2022-11-15T09:20:37;31.33;;;11.13;;
48423;SDS011;34232;42.502;26.014;2022-11-15T09:23:03;26.03;;;12.00;;
48423;SDS011;34232;42.502;26.014;2022-11-15T09:27:55;29.80;;;12.18;;
48423;SDS011;34232;42.502;26.014;2022-11-15T09:30:20;31.47;;;12.40;;
48423;SDS011;34232;42.502;26.014;2022-11-15T09:32:46;27.50;;;12.80;;
48423;SDS011;34232;42.502;26.014;2022-11-15T09:35:12;29.47;;;13.03;;
48423;SDS011;34232;42.502;26.014;2022-11-15T09:37:37;31.40;;;12.20;;
48423;SDS011;34232;42.502;26.014;2022-11-15T09:40:03;29.20;;;12.53;;
48423;SDS011;34232;42.502;26.014;2022-11-15T09:42:50;32.00;;;13.23;;
48423;SDS011;34232;42.502;26.014;2022-11-15T09:45:28;28.17;;;13.90;;
48423;SDS011;34232;42.502;26.014;2022-11-15T09:50:41;30.60;;;13.05;;
48423;SDS011;34232;42.502;26.014;2022-11-15T09:53:12;28.35;;;11.73;;
48423;SDS011;34232;42.502;26.014;2022-11-15T09:58:37;28.38;;;12.32;;
48423;SDS011;34232;42.502;26.014;2022-11-15T10:04:11;21.48;;;10.40;;
48423;SDS011;34232;42.502;26.014;2022-11-15T10:06:40;28.15;;;12.27;;
48423;SDS011;34232;42.502;26.014;2022-11-15T10:12:03;25.70;;;12.38;;
48423;SDS011;34232;42.502;26.014;2022-11-15T10:14:29;24.52;;;12.15;;
48423;SDS011;34232;42.502;26.014;2022-11-15T10:19:35;29.08;;;11.52;;
48423;SDS011;34232;42.502;26.014;2022-11-15T10:24:40;32.35;;;11.40;;
48423;SDS011;34232;42.502;26.014;2022-11-15T10:27:11;26.60;;;11.07;;
48423;SDS011;34232;42.502;26.014;2022-11-15T10:29:47;32.88;;;12.98;;
48423;SDS011;34232;42.502;26.014;2022-11-15T10:32:14;25.10;;;12.00;;
48423;SDS011;34232;42.502;26.014;2022-11-15T10:34:42;28.50;;;11.85;;
48423;SDS011;34232;42.502;26.014;2022-11-15T10:37:07;18.20;;;10.47;;
48423;SDS011;34232;42.502;26.014;2022-11-15T10:39:33;20.87;;;9.37;;
48423;SDS011;34232;42.502;26.014;2022-11-15T10:42:14;26.33;;;9.03;;
48423;SDS011;34232;42.502;26.014;2022-11-15T10:44:54;23.77;;;9.25;;
48423;SDS011;34232;42.502;26.014;2022-11-15T10:47:21;22.13;;;10.00;;
48423;SDS011;34232;42.502;26.014;2022-11-15T10:49:53;28.20;;;10.27;;
48423;SDS011;34232;42.502;26.014;2022-11-15T10:52:26;19.05;;;9.38;;
48423;SDS011;34232;42.502;26.014;2022-11-15T10:54:55;25.00;;;10.02;;
48423;SDS011;34232;42.502;26.014;2022-11-15T10:57:27;22.58;;;10.43;;
48423;SDS011;34232;42.502;26.014;2022-11-15T11:02:47;20.17;;;10.07;;
48423;SDS011;34232;42.502;26.014;2022-11-15T11:05:34;21.38;;;8.95;;
48423;SDS011;34232;42.502;26.014;2022-11-15T11:10:36;20.08;;;9.75;;
48423;SDS011;34232;42.502;26.014;2022-11-15T11:13:14;19.43;;;10.90;;
48423;SDS011;34232;42.502;26.014;2022-11-15T11:15:46;21.95;;;11.70;;
48423;SDS011;34232;42.502;26.014;2022-11-15T11:18:25;21.08;;;9.45;;
48423;SDS011;34232;42.502;26.014;2022-11-15T11:20:58;21.38;;;11.20;;
48423;SDS011;34232;42.502;26.014;2022-11-15T11:26:39;31.30;;;12.77;;
48423;SDS011;34232;42.502;26.014;2022-11-15T11:29:19;21.92;;;10.63;;
48423;SDS011;34232;42.502;26.014;2022-11-15T11:37:12;23.17;;;10.05;;
48423;SDS011;34232;42.502;26.014;2022-11-15T11:47:40;24.47;;;10.47;;
48423;SDS011;34232;42.502;26.014;2022-11-15T11:57:58;24.00;;;12.32;;
48423;SDS011;34232;42.502;26.014;2022-11-15T12:00:29;28.33;;;13.57;;
48423;SDS011;34232;42.502;26.014;2022-11-15T12:05:47;24.77;;;11.70;;
48423;SDS011;34232;42.502;26.014;2022-11-15T12:11:37;20.83;;;11.00;;
48423;SDS011;34232;42.502;26.014;2022-11-15T12:14:22;22.45;;;11.25;;
48423;SDS011;34232;42.502;26.014;2022-11-15T12:16:52;24.20;;;12.52;;
48423;SDS011;34232;42.502;26.014;2022-11-15T12:19:17;28.47;;;11.57;;
48423;SDS011;34232;42.502;26.014;2022-11-15T12:21:56;28.73;;;13.07;;
48423;SDS011;34232;42.502;26.014;2022-11-15T12:24:40;27.98;;;12.40;;
48423;SDS011;34232;42.502;26.014;2022-11-15T12:27:18;24.58;;;12.38;;
48423;SDS011;34232;42.502;26.014;2022-11-15T12:29:58;24.17;;;12.15;;
48423;SDS011;34232;42.502;26.014;2022-11-15T12:32:29;25.30;;;12.43;;
48423;SDS011;34232;42.502;26.014;2022-11-15T12:34:58;22.42;;;12.05;;
48423;SDS011;34232;42.502;26.014;2022-11-15T13:04:08;19.80;;;10.48;;
48423;SDS011;34232;42.502;26.014;2022-11-15T13:12:11;18.13;;;10.27;;
48423;SDS011;34232;42.502;26.014;2022-11-15T13:14:51;25.75;;;12.27;;
48423;SDS011;34232;42.502;26.014;2022-11-15T13:19:45;22.27;;;11.43;;
48423;SDS011;34232;42.502;26.014;2022-11-15T13:22:12;20.58;;;11.57;;
48423;SDS011;34232;42.502;26.014;2022-11-15T13:24:57;20.98;;;11.75;;
48423;SDS011;34232;42.502;26.014;2022-11-15T13:27:23;21.48;;;11.35;;
48423;SDS011;34232;42.502;26.014;2022-11-15T13:29:49;24.95;;;14.00;;
48423;SDS011;34232;42.502;26.014;2022-11-15T13:32:15;22.60;;;13.17;;
48423;SDS011;34232;42.502;26.014;2022-11-15T13:34:45;26.80;;;12.38;;
48423;SDS011;34232;42.502;26.014;2022-11-15T13:37:26;22.60;;;12.35;;
48423;SDS011;34232;42.502;26.014;2022-11-15T13:39:54;36.35;;;14.35;;
48423;SDS011;34232;42.502;26.014;2022-11-15T13:42:34;22.00;;;12.02;;
48423;SDS011;34232;42.502;26.014;2022-11-15T13:45:02;21.80;;;11.10;;
48423;SDS011;34232;42.502;26.014;2022-11-15T13:47:32;22.88;;;11.55;;
48423;SDS011;34232;42.502;26.014;2022-11-15T13:49:58;22.95;;;13.18;;
48423;SDS011;34232;42.502;26.014;2022-11-15T13:52:31;30.65;;;14.63;;
48423;SDS011;34232;42.502;26.014;2022-11-15T13:55:04;31.85;;;14.15;;
48423;SDS011;34232;42.502;26.014;2022-11-15T13:57:42;28.70;;;14.77;;
48423;SDS011;34232;42.502;26.014;2022-11-15T14:03:12;34.58;;;17.20;;
48423;SDS011;34232;42.502;26.014;2022-11-15T14:05:40;43.15;;;23.58;;
48423;SDS011;34232;42.502;26.014;2022-11-15T14:10:40;33.03;;;17.73;;
48423;SDS011;34232;42.502;26.014;2022-11-15T14:13:26;24.13;;;12.13;;
48423;SDS011;34232;42.502;26.014;2022-11-15T14:18:41;30.33;;;17.88;;
48423;SDS011;34232;42.502;26.014;2022-11-15T14:21:12;34.97;;;15.68;;
48423;SDS011;34232;42.502;26.014;2022-11-15T14:23:38;26.27;;;14.55;;
48423;SDS011;34232;42.502;26.014;2022-11-15T14:26:03;22.90;;;12.33;;
48423;SDS011;34232;42.502;26.014;2022-11-15T14:28:30;23.53;;;11.13;;
48423;SDS011;34232;42.502;26.014;2022-11-15T14:30:59;24.48;;;12.45;;
48423;SDS011;34232;42.502;26.014;2022-11-15T14:33:29;29.05;;;13.20;;
48423;SDS011;34232;42.502;26.014;2022-11-15T14:35:57;25.65;;;13.40;;
48423;SDS011;34232;42.502;26.014;2022-11-15T14:38:27;23.75;;;12.88;;
48423;SDS011;34232;42.502;26.014;2022-11-15T14:40:52;31.63;;;12.93;;
48423;SDS011;34232;42.502;26.014;2022-11-15T14:43:19;25.63;;;12.93;;
48423;SDS011;34232;42.502;26.014;2022-11-15T14:45:45;30.70;;;18.43;;
48423;SDS011;34232;42.502;26.014;2022-11-15T14:48:11;33.70;;;19.70;;
48423;SDS011;34232;42.502;26.014;2022-11-15T14:50:36;32.07;;;18.43;;
48423;SDS011;34232;42.502;26.014;2022-11-15T14:53:02;34.87;;;16.93;;
48423;SDS011;34232;42.502;26.014;2022-11-15T14:55:32;39.70;;;18.63;;
48423;SDS011;34232;42.502;26.014;2022-11-15T14:58:03;30.73;;;18.88;;
48423;SDS011;34232;42.502;26.014;2022-11-15T15:00:32;34.45;;;17.65;;
48423;SDS011;34232;42.502;26.014;2022-11-15T15:02:58;28.48;;;15.23;;
48423;SDS011;34232;42.502;26.014;2022-11-15T15:05:25;28.95;;;16.23;;
48423;SDS011;34232;42.502;26.014;2022-11-15T15:12:45;45.85;;;23.55;;
48423;SDS011;34232;42.502;26.014;2022-11-15T15:18:03;37.10;;;19.10;;
48423;SDS011;34232;42.502;26.014;2022-11-15T15:20:30;34.35;;;17.30;;
48423;SDS011;34232;42.502;26.014;2022-11-15T15:22:56;39.05;;;18.23;;
48423;SDS011;34232;42.502;26.014;2022-11-15T15:27:55;32.83;;;17.83;;
48423;SDS011;34232;42.502;26.014;2022-11-15T15:30:21;28.67;;;17.17;;
48423;SDS011;34232;42.502;26.014;2022-11-15T15:32:48;28.73;;;14.40;;
48423;SDS011;34232;42.502;26.014;2022-11-15T15:35:14;28.80;;;14.90;;
48423;SDS011;34232;42.502;26.014;2022-11-15T15:37:41;21.65;;;11.90;;
48423;SDS011;34232;42.502;26.014;2022-11-15T15:40:10;22.02;;;12.27;;
48423;SDS011;34232;42.502;26.014;2022-11-15T15:42:40;24.02;;;12.65;;
48423;SDS011;34232;42.502;26.014;2022-11-15T15:45:06;23.23;;;12.47;;
48423;SDS011;34232;42.502;26.014;2022-11-15T15:47:32;25.45;;;14.23;;
48423;SDS011;34232;42.502;26.014;2022-11-15T15:49:57;30.63;;;14.43;;
48423;SDS011;34232;42.502;26.014;2022-11-15T15:52:23;24.93;;;13.37;;
48423;SDS011;34232;42.502;26.014;2022-11-15T15:54:50;29.90;;;14.23;;
48423;SDS011;34232;42.502;26.014;2022-11-15T15:57:15;26.10;;;14.13;;
48423;SDS011;34232;42.502;26.014;2022-11-15T15:59:41;28.70;;;15.43;;
48423;SDS011;34232;42.502;26.014;2022-11-15T16:02:08;28.35;;;14.13;;
48423;SDS011;34232;42.502;26.014;2022-11-15T16:04:36;32.40;;;16.70;;
48423;SDS011;34232;42.502;26.014;2022-11-15T16:07:02;38.37;;;20.33;;
48423;SDS011;34232;42.502;26.014;2022-11-15T16:12:24;31.50;;;16.80;;
48423;SDS011;34232;42.502;26.014;2022-11-15T16:14:49;39.50;;;19.07;;
48423;SDS011;34232;42.502;26.014;2022-11-15T16:17:18;31.67;;;17.33;;
48423;SDS011;34232;42.502;26.014;2022-11-15T16:19:47;35.85;;;19.08;;
48423;SDS011;34232;42.502;26.014;2022-11-15T16:22:13;38.07;;;20.40;;
48423;SDS011;34232;42.502;26.014;2022-11-15T16:24:38;35.40;;;21.00;;
48423;SDS011;34232;42.502;26.014;2022-11-15T16:27:03;38.67;;;21.63;;
48423;SDS011;34232;42.502;26.014;2022-11-15T16:29:29;29.00;;;15.50;;
48423;SDS011;34232;42.502;26.014;2022-11-15T16:31:54;23.10;;;13.27;;
48423;SDS011;34232;42.502;26.014;2022-11-15T16:34:20;25.58;;;14.45;;
48423;SDS011;34232;42.502;26.014;2022-11-15T16:36:46;29.00;;;16.23;;
48423;SDS011;34232;42.502;26.014;2022-11-15T16:39:12;33.10;;;16.17;;
48423;SDS011;34232;42.502;26.014;2022-11-15T16:41:43;28.15;;;15.35;;
48423;SDS011;34232;42.502;26.014;2022-11-15T16:44:11;30.45;;;17.67;;